TimeMDT,TemperatureF,Dew PointF,Humidity,Sea Level PressureIn,VisibilityMPH,Wind Direction,Wind SpeedMPH,Gust SpeedMPH,PrecipitationIn,Events,Conditions,WindDirDegrees,DateUTC
1:41 AM,80.6,71.6,74,29.98,10.0,Calm,Calm,-,N/A,,Clear,0,2012-10-04 07:41:00
2:30 AM,80,66,54,29.95,5,NE,2.2,,,,,50,2012-10-04 08:30:00
2:48 AM,78.8,68.0,69,29.93,10.0,Calm,Calm,-,N/A,,Clear,0,2012-10-04 08:48:00
3:46 AM,75.2,68.0,78,29.98,10.0,Calm,Calm,-,N/A,,Clear,0,2012-10-04 09:46:00
4:47 AM,75.2,68.0,78,29.99,10.0,Calm,Calm,-,N/A,,Clear,0,2012-10-04 10:47:00
5:30 AM,73,57,48,29.97,5,NE,2.2,,,,,50,2012-10-04 11:30:00
5:51 AM,73.4,68.0,83,30.00,10.0,Calm,Calm,-,N/A,,Clear,0,2012-10-04 11:51:00
7:41 AM,75.2,62.6,65,30.02,10.0,East,4.6,-,N/A,,Clear,90,2012-10-04 13:41:00
8:35 AM,74,54,40,30.01,7,NE,2.2,,,,,40,2012-10-04 14:35:00
8:41 AM,78.8,59.0,51,29.99,10.0,Calm,Calm,-,N/A,,Clear,0,2012-10-04 14:41:00
9:42 AM,84.2,66.2,55,30.05,10.0,Calm,Calm,-,N/A,,Clear,0,2012-10-04 15:42:00
10:45 AM,89.6,59.0,36,30.05,10.0,Calm,Calm,-,N/A,,Clear,0,2012-10-04 16:45:00
11:43 AM,95.0,53.6,25,30.00,10.0,South,4.6,-,N/A,,Clear,190,2012-10-04 17:43:00
12:42 PM,100.4,53.6,21,30.04,10.0,SSW,5.8,-,N/A,,Clear,200,2012-10-04 18:42:00
1:40 PM,102.2,46.4,15,30.01,10.0,ESE,5.8,-,N/A,,Clear,120,2012-10-04 19:40:00
2:45 PM,103,54,12,29.94,7,SW,2.2,,,,,230,2012-10-04 20:45:00
2:47 PM,104.0,41.0,12,29.88,10.0,WSW,4.6,-,N/A,,Clear,250,2012-10-04 20:47:00
3:45 PM,104.0,39.2,11,29.97,12.0,SSW,11.5,-,N/A,,Clear,210,2012-10-04 21:45:00
4:42 PM,104.0,39.2,11,29.96,12.0,WNW,6.9,-,N/A,,Clear,300,2012-10-04 22:42:00
5:40 PM,103,53,11,29.90,7,SW,2.2,,,,,230,2012-10-04 23:40:00
5:44 PM,102.2,39.2,11,29.94,12.0,WSW,8.1,-,N/A,,Clear,250,2012-10-04 23:44:00
6:46 PM,98.6,37.4,12,29.95,12.0,West,8.1,-,N/A,,Clear,270,2012-10-05 00:46:00
7:49 PM,89.6,37.4,16,29.96,10.0,West,4.6,-,N/A,,Clear,270,2012-10-05 01:49:00
8:30 PM,92,43,10,29.92,5,SW,2.2,,,,,220,2012-10-05 02:30:00
8:42 PM,87.8,39.2,18,29.97,10.0,NW,4.6,-,N/A,,Clear,320,2012-10-05 02:42:00
9:47 PM,87.8,39.2,18,29.98,10.0,NW,4.6,-,N/A,,Clear,310,2012-10-05 03:47:00
10:42 PM,87.8,37.4,17,29.99,10.0,NW,4.6,-,N/A,,Clear,310,2012-10-05 04:42:00
11:30 PM,85,57,28,29.95,5,NE,2.2,,,,Scattered Clouds,50,2012-10-05 05:30:00
11:43 PM,86.0,39.2,19,29.93,10.0,NW,3.5,-,N/A,,Clear,320,2012-10-05 05:43:00